Flight Track Log - Related Links

Times and Time Zones

All times are in EDT time to prevent confusion due to time zone crossing. See the AWI3642 flight status page for this flight to view local times or setup timezone preferences in your user account.

Time Position Orientation Groundspeed Altitude Reporting Facility
EDT Latitude Longitude Course Direction KTS MPH feet Rate Location/Type
Mon 05:47:19 PM 39.8667 -75.2833 218° Southwest 154 177 700  Level Philadelphia TRACON
Mon 05:48:01 PM 39.8333 -75.3167 218° Southwest 193 222 2,100 1,706 Climbing Philadelphia TRACON
Mon 05:49:01 PM 39.7833 -75.3500 207° Southwest 263 303 3,600 1,900 Climbing Philadelphia TRACON
Mon 05:50:01 PM 39.7500 -75.2667 117° Southeast 288 331 5,900 2,250 Climbing Philadelphia TRACON
Mon 05:51:01 PM 39.7500 -75.1667 90° East 299 344 8,100 1,899 Climbing Philadelphia TRACON
Mon 05:52:39 PM 39.7686 -75.0031 82° East 339 390 10,900 1,472 Climbing New Center
Mon 05:53:40 PM 39.7794 -74.8739 84° East 328 377 12,000 1,131 Climbing New Center
Mon 05:54:41 PM 39.8208 -74.7683 63° Northeast 335 386 13,200 1,388 Climbing New Center
Mon 05:55:41 PM 39.8819 -74.6797 48° Northeast 327 376 14,800 1,475 Climbing New Center
Mon 05:56:39 PM 39.9558 -74.5892 43° Northeast 337 388 16,100 1,361 Climbing New Center
Mon 05:57:40 PM 40.0297 -74.4956 44° Northeast 350 403 17,500 1,610 Climbing New Center
Mon 05:58:42 PM 40.1097 -74.4078 40° Northeast 368 423 19,400 1,800 Climbing New Center
Mon 05:59:40 PM 40.1872 -74.3275 38° Northeast 363 418 21,100 1,109 Climbing New Center
Mon 06:00:41 PM 40.2689 -74.2447 38° Northeast 363 418 21,600 504 Climbing New Center
Mon 06:01:39 PM 40.3586 -74.1647 34° Northeast 371 427 22,100 706 Climbing New Center
Mon 06:02:40 PM 40.4625 -74.1017 25° Northeast 392 451 23,000 992 Climbing New Center
Mon 06:03:40 PM 40.5664 -74.0439 23° Northeast 397 457 24,100 663 Climbing New Center
Mon 06:05:41 PM 40.7978 -73.9700 14° North 394 453 25,000 298 Climbing Boston Center
Mon 06:06:41 PM 40.9211 -73.9372 11° North 408 470 25,000  Level Boston Center
Mon 06:07:41 PM 41.0383 -73.9042 12° North 414 476 25,000  Level Boston Center
Mon 06:08:41 PM 41.1492 -73.8733 12° North 414 476 25,000  Level Boston Center
Mon 06:09:41 PM 41.2558 -73.8456 11° North 400 460 25,000  Level Boston Center
Mon 06:10:41 PM 41.3625 -73.8147 12° North 389 448 25,000  Level Boston Center
Mon 06:11:41 PM 41.4650 -73.7836 13° North 384 442 25,000  Level Boston Center
Mon 06:12:53 PM 41.5906 -73.7503 11° North 377 434 25,000  Level Boston Center
Mon 06:13:53 PM 41.6928 -73.7189 13° North 377 434 25,000  Level Boston Center
Mon 06:14:53 PM 41.7808 -73.6956 11° North 372 428 25,000  Level Boston Center
Mon 06:15:53 PM 41.8853 -73.6669 12° North 367 422 25,000  Level Boston Center
Mon 06:16:53 PM 41.9878 -73.6383 12° North 372 428 25,000  Level Boston Center
Mon 06:17:53 PM 42.1069 -73.6042 12° North 377 434 25,000  Level Boston Center
Mon 06:18:53 PM 42.2156 -73.5811 North 388 447 25,000  Level Boston Center
Mon 06:19:53 PM 42.3261 -73.5578 North 393 452 25,000  Level Boston Center
Mon 06:20:53 PM 42.4242 -73.5511 North 393 452 25,000  Level Boston Center
Mon 06:21:53 PM 42.5369 -73.5306 North 393 452 25,000  Level Boston Center
Mon 06:22:53 PM 42.6497 -73.5072 North 399 459 25,000  Level Boston Center
Mon 06:23:53 PM 42.7644 -73.4864 North 404 465 25,000  Level Boston Center
Mon 06:24:53 PM 42.8814 -73.4600 North 404 465 25,000 -150 Level Boston Center
Mon 06:25:53 PM 42.9919 -73.4392 North 399 459 24,700 -500 Descending Boston Center
Mon 06:26:53 PM 43.0986 -73.4183 North 391 450 24,000 -350 Descending Boston Center
Mon 06:27:53 PM 43.1903 -73.3997 North 380 437 24,000  Level Boston Center
Mon 06:29:05 PM 43.2969 -73.3786 North 380 437 24,000  Level Boston Center
Mon 06:30:05 PM 43.4283 -73.3550 North 388 447 24,000 -1,150 Level Boston Center
Mon 06:31:05 PM 43.5411 -73.3336 North 393 452 21,700 -1,900 Descending Boston Center
Mon 06:32:05 PM 43.6286 -73.3178 North 393 452 20,200 -2,000 Descending Boston Center
Mon 06:33:05 PM 43.7581 -73.2967 North 371 427 17,700 -2,200 Descending Boston Center
Mon 06:34:05 PM 43.8500 -73.2778 North 349 402 15,800 -1,900 Descending Boston Center
Mon 06:35:05 PM 43.9417 -73.2589 North 332 382 13,900 -1,850 Descending Boston Center
Mon 06:36:05 PM 44.0253 -73.2428 North 316 364 12,100 -1,800 Descending Boston Center
Mon 06:38:00 PM 44.1847 -73.2019 North  Level FlightAware
Mon 06:45:00 PM 44.4667 -73.1500 10° North  Level FlightAware
Mon 06:46:00 PM 44.4719 -73.1533 10° North  Level Estimated
Mon 06:47:00 PM 44.4667 -73.1500 10° North  Level FlightAware

Login

Don't have an account? Register now (free) for customized features, flight alerts, and more!